Benguela Stream — PENR — position and weather

sailwx.info

Track history (hours):
 
Tides and Currents Weather Stations Pressure Air Temp Water Temp Dewpoint Dewpoint Depression Visibility Wind Speed Wind Dir Waves Ship Positions

Benguela Stream

Last reported at 2015-Jul-26 12:00 UTC. Time now 2015-Jul-28 17:45 UTC.
Position N 35°18' W 035°48'.

Length 150 m; beam 13 m.

Type: Ship (hazmat cat D). MMSI: 244455000.

Wind from 200 at 6 knots

Waves 0.5 meters (2 feet), 1 second period

Barometer 1027.6 mb
Air temperature 26.2 ° C
Visibility: greater than 10.8 NM
Dewpoint 21.3 ° C
Water temperature 27.0 ° C

Date/timePositionNaut miles runAvg speedWind from/ knotsBaromVisibWave heightAir tempDewpointWater temp
2015-Jul-26 12:00N 35°18' W 035°48'13622.7 200 / 61027.610.8 0.526.221.327.0
2015-Jul-26 06:00N 36°48' W 033°42'13515.9 1026.7 5.4 24.822.9
2015-Jul-25 21:31N 38°20' W 031°38'1818.3
2015-Jul-25 20:32N 38°32' W 031°21'1918.5
2015-Jul-25 19:32N 38°44' W 031°03'2218.5
2015-Jul-25 18:22N 38°59' W 030°44'3182.2
2015-Jul-25 18:00N 39°18' W 030°12'1636.7 240 / 151024.9 5.4 1.524.723.4
2015-Jul-25 17:33N 39°09' W 030°29'1918.9
2015-Jul-25 16:33N 39°22' W 030°11'1919.3
2015-Jul-25 15:33N 39°34' W 029°51'1919.2
2015-Jul-25 14:33N 39°47' W 029°33'1919.4
2015-Jul-25 13:33N 39°60' W 029°15'1919.0
2015-Jul-25 12:33N 40°12' W 028°56'1918.8
2015-Jul-25 11:33N 40°25' W 028°37'4218.9
2015-Jul-25 09:19N 40°53' W 027°56'1918.8
2015-Jul-25 08:19N 41°06' W 027°38'1418.6
2015-Jul-25 07:33N 41°15' W 027°24'5233.0
2015-Jul-25 06:00N 41°48' W 026°30'68319.0 1019.0 5.4 21.920.7
2015-Jul-23 18:00N 47°42' W 012°48'22518.8 360 / 171008.6 1.1 1.516.516.2
2015-Jul-23 06:00N 49°00' W 007°30'17816.7 260 / 51020.1 5.4 0.516.611.5
2015-Jul-22 19:21N 49°56' W 003°10'1619.6
2015-Jul-22 18:32N 49°59' W 002°46'1018.5
2015-Jul-22 18:00N 50°00' W 002°30'5620.5 260 / 101017.310.8 2.016.612.1
2015-Jul-22 15:14N 49°50' W 001°04'1319.0
2015-Jul-22 14:33N 49°44' W 000°46'1818.5
2015-Jul-22 13:33N 49°36' W 000°20'1717.1
2015-Jul-22 12:33N 49°29' E 000°04'3 3.3
2015-Jul-22 11:32N 49°28' E 000°09'0 0.0
2015-Jul-22 10:32N 49°28' E 000°09'0 0.0
2015-Jul-22 09:32N 49°28' E 000°09'0 0.0
2015-Jul-22 08:32N 49°28' E 000°09'0 0.0
2015-Jul-22 07:29N 49°28' E 000°09'0 0.0
2015-Jul-22 06:32N 49°28' E 000°09'0 0.0
2015-Jul-22 05:32N 49°28' E 000°09'0 0.0
2015-Jul-22 04:32N 49°28' E 000°09'1 0.7
2015-Jul-22 03:33N 49°28' E 000°08'1111.2
2015-Jul-22 02:33N 49°33' W 000°08'0 0.3
2015-Jul-22 01:31N 49°33' W 000°08'0 0.0
2015-Jul-22 00:31N 49°33' W 000°08'0 0.0
2015-Jul-21 23:31N 49°33' W 000°08'0 0.0
2015-Jul-21 22:31N 49°33' W 000°08'5 5.3
2015-Jul-21 21:34N 49°37' W 000°13'2120.4
2015-Jul-21 20:33N 49°56' W 000°26'4120.5
2015-Jul-21 18:33N 50°32' W 000°54'1515.0
2015-Jul-21 17:33N 50°46' W 001°05'3 3.0
2015-Jul-21 16:33N 50°49' W 001°05'0 0.0
2015-Jul-21 15:33N 50°49' W 001°05'0 0.0
2015-Jul-21 14:33N 50°49' W 001°05'0 0.0
2015-Jul-21 13:33N 50°49' W 001°05'0 0.0
2015-Jul-21 12:33N 50°49' W 001°05'0 0.0
2015-Jul-21 11:33N 50°49' W 001°05'0 0.0
2015-Jul-21 10:33N 50°49' W 001°05'0 0.0
2015-Jul-21 09:33N 50°49' W 001°05'0 0.0
2015-Jul-21 08:33N 50°49' W 001°05'0 0.0
2015-Jul-21 07:33N 50°49' W 001°05'0 0.0
2015-Jul-21 06:33N 50°49' W 001°05'0 0.0
2015-Jul-21 05:33N 50°49' W 001°05'0 0.0
2015-Jul-21 04:33N 50°49' W 001°05'0 0.0
2015-Jul-21 03:33N 50°49' W 001°05'0 0.0
2015-Jul-21 02:33N 50°49' W 001°05'0 0.0
2015-Jul-21 01:33N 50°49' W 001°05'0 0.0
2015-Jul-21 00:33N 50°49' W 001°05'0 0.0
2015-Jul-20 23:33N 50°49' W 001°05'0 0.0
2015-Jul-20 22:33N 50°49' W 001°05'0 0.0
2015-Jul-20 21:33N 50°49' W 001°05'0 0.0
2015-Jul-20 20:33N 50°49' W 001°05'0 0.0
2015-Jul-20 19:33N 50°49' W 001°05'0 0.0
2015-Jul-20 18:33N 50°49' W 001°05'0 0.0
2015-Jul-20 17:33N 50°49' W 001°05'0 0.0
2015-Jul-20 16:33N 50°49' W 001°05'0 0.0
2015-Jul-20 15:33N 50°49' W 001°05'0 0.0
2015-Jul-20 14:33N 50°49' W 001°05'0 0.0
2015-Jul-20 13:33N 50°49' W 001°05'0 0.0
2015-Jul-20 12:33N 50°49' W 001°05'0 0.0
2015-Jul-20 11:33N 50°49' W 001°05'0 0.0
2015-Jul-20 10:33N 50°49' W 001°05'0 0.0
2015-Jul-20 09:33N 50°49' W 001°05'0 0.0
2015-Jul-20 08:33N 50°49' W 001°05'0 0.0
2015-Jul-20 07:33N 50°49' W 001°05'0 0.0
2015-Jul-20 06:33N 50°49' W 001°05'0 0.0
2015-Jul-20 05:33N 50°49' W 001°05'0 0.0
2015-Jul-20 04:33N 50°49' W 001°05'0 0.0
2015-Jul-20 03:33N 50°49' W 001°05'0 0.0
2015-Jul-20 02:33N 50°49' W 001°05'0 0.0
2015-Jul-20 01:33N 50°49' W 001°05'0 0.0
2015-Jul-20 00:33N 50°49' W 001°05'0 0.0
2015-Jul-19 23:33N 50°49' W 001°05'0 0.0
2015-Jul-19 22:33N 50°49' W 001°05'0 0.0
2015-Jul-19 21:33N 50°49' W 001°05'1 1.4
2015-Jul-19 20:34N 50°47' W 001°07'9 9.0
2015-Jul-19 19:34N 50°40' W 000°58'1211.9
2015-Jul-19 18:34N 50°31' W 001°09'1817.8
2015-Jul-19 17:33N 50°26' W 001°36'1717.5
2015-Jul-19 16:34N 50°22' W 002°03'1716.9
2015-Jul-19 15:33N 50°18' W 002°28'1717.5
2015-Jul-19 14:34N 50°13' W 002°54'1817.6
2015-Jul-19 13:34N 50°08' W 003°21'60419.1
2015-Jul-18 06:00N 48°48' W 018°42'   020 / 71011.4 5.4 0.516.514.216.6
Track history (hours):
 
Tides and Currents Weather Stations Pressure Air Temp Water Temp Dewpoint Dewpoint Depression Visibility Wind Speed Wind Dir Waves Ship Positions

Benguela Stream

Last reported at 2015-Jul-26 12:00 UTC. Time now 2015-Jul-28 17:45 UTC.
Position N 35°18' W 035°48'.

Length 150 m; beam 13 m.

Type: Ship (hazmat cat D). MMSI: 244455000.

Wind from 200 at 6 knots

Waves 0.5 meters (2 feet), 1 second period

Barometer 1027.6 mb
Air temperature 26.2 ° C
Visibility: greater than 10.8 NM
Dewpoint 21.3 ° C
Water temperature 27.0 ° C

Date/timePositionNaut miles runAvg speedWind from/ knotsBaromVisibWave heightAir tempDewpointWater temp
2015-Jul-26 12:00N 35°18' W 035°48'13622.7 200 / 61027.610.8 0.526.221.327.0
2015-Jul-26 06:00N 36°48' W 033°42'13515.9 1026.7 5.4 24.822.9
2015-Jul-25 21:31N 38°20' W 031°38'1818.3
2015-Jul-25 20:32N 38°32' W 031°21'1918.5
2015-Jul-25 19:32N 38°44' W 031°03'2218.5
2015-Jul-25 18:22N 38°59' W 030°44'3182.2
2015-Jul-25 18:00N 39°18' W 030°12'1636.7 240 / 151024.9 5.4 1.524.723.4
2015-Jul-25 17:33N 39°09' W 030°29'1918.9
2015-Jul-25 16:33N 39°22' W 030°11'1919.3
2015-Jul-25 15:33N 39°34' W 029°51'1919.2
2015-Jul-25 14:33N 39°47' W 029°33'1919.4
2015-Jul-25 13:33N 39°60' W 029°15'1919.0
2015-Jul-25 12:33N 40°12' W 028°56'1918.8
2015-Jul-25 11:33N 40°25' W 028°37'4218.9
2015-Jul-25 09:19N 40°53' W 027°56'1918.8
2015-Jul-25 08:19N 41°06' W 027°38'1418.6
2015-Jul-25 07:33N 41°15' W 027°24'5233.0
2015-Jul-25 06:00N 41°48' W 026°30'68319.0 1019.0 5.4 21.920.7
2015-Jul-23 18:00N 47°42' W 012°48'22518.8 360 / 171008.6 1.1 1.516.516.2
2015-Jul-23 06:00N 49°00' W 007°30'17816.7 260 / 51020.1 5.4 0.516.611.5
2015-Jul-22 19:21N 49°56' W 003°10'1619.6
2015-Jul-22 18:32N 49°59' W 002°46'1018.5
2015-Jul-22 18:00N 50°00' W 002°30'5620.5 260 / 101017.310.8 2.016.612.1
2015-Jul-22 15:14N 49°50' W 001°04'1319.0
2015-Jul-22 14:33N 49°44' W 000°46'1818.5
2015-Jul-22 13:33N 49°36' W 000°20'1717.1
2015-Jul-22 12:33N 49°29' E 000°04'3 3.3
2015-Jul-22 11:32N 49°28' E 000°09'0 0.0
2015-Jul-22 10:32N 49°28' E 000°09'0 0.0
2015-Jul-22 09:32N 49°28' E 000°09'0 0.0
2015-Jul-22 08:32N 49°28' E 000°09'0 0.0
2015-Jul-22 07:29N 49°28' E 000°09'0 0.0
2015-Jul-22 06:32N 49°28' E 000°09'0 0.0
2015-Jul-22 05:32N 49°28' E 000°09'0 0.0
2015-Jul-22 04:32N 49°28' E 000°09'1 0.7
2015-Jul-22 03:33N 49°28' E 000°08'1111.2
2015-Jul-22 02:33N 49°33' W 000°08'0 0.3
2015-Jul-22 01:31N 49°33' W 000°08'0 0.0
2015-Jul-22 00:31N 49°33' W 000°08'0 0.0
2015-Jul-21 23:31N 49°33' W 000°08'0 0.0
2015-Jul-21 22:31N 49°33' W 000°08'5 5.3
2015-Jul-21 21:34N 49°37' W 000°13'2120.4
2015-Jul-21 20:33N 49°56' W 000°26'4120.5
2015-Jul-21 18:33N 50°32' W 000°54'1515.0
2015-Jul-21 17:33N 50°46' W 001°05'3 3.0
2015-Jul-21 16:33N 50°49' W 001°05'0 0.0
2015-Jul-21 15:33N 50°49' W 001°05'0 0.0
2015-Jul-21 14:33N 50°49' W 001°05'0 0.0
2015-Jul-21 13:33N 50°49' W 001°05'0 0.0
2015-Jul-21 12:33N 50°49' W 001°05'0 0.0
2015-Jul-21 11:33N 50°49' W 001°05'0 0.0
2015-Jul-21 10:33N 50°49' W 001°05'0 0.0
2015-Jul-21 09:33N 50°49' W 001°05'0 0.0
2015-Jul-21 08:33N 50°49' W 001°05'0 0.0
2015-Jul-21 07:33N 50°49' W 001°05'0 0.0
2015-Jul-21 06:33N 50°49' W 001°05'0 0.0
2015-Jul-21 05:33N 50°49' W 001°05'0 0.0
2015-Jul-21 04:33N 50°49' W 001°05'0 0.0
2015-Jul-21 03:33N 50°49' W 001°05'0 0.0
2015-Jul-21 02:33N 50°49' W 001°05'0 0.0
2015-Jul-21 01:33N 50°49' W 001°05'0 0.0
2015-Jul-21 00:33N 50°49' W 001°05'0 0.0
2015-Jul-20 23:33N 50°49' W 001°05'0 0.0
2015-Jul-20 22:33N 50°49' W 001°05'0 0.0
2015-Jul-20 21:33N 50°49' W 001°05'0 0.0
2015-Jul-20 20:33N 50°49' W 001°05'0 0.0
2015-Jul-20 19:33N 50°49' W 001°05'0 0.0
2015-Jul-20 18:33N 50°49' W 001°05'0 0.0
2015-Jul-20 17:33N 50°49' W 001°05'0 0.0
2015-Jul-20 16:33N 50°49' W 001°05'0 0.0
2015-Jul-20 15:33N 50°49' W 001°05'0 0.0
2015-Jul-20 14:33N 50°49' W 001°05'0 0.0
2015-Jul-20 13:33N 50°49' W 001°05'0 0.0
2015-Jul-20 12:33N 50°49' W 001°05'0 0.0
2015-Jul-20 11:33N 50°49' W 001°05'0 0.0
2015-Jul-20 10:33N 50°49' W 001°05'0 0.0
2015-Jul-20 09:33N 50°49' W 001°05'0 0.0
2015-Jul-20 08:33N 50°49' W 001°05'0 0.0
2015-Jul-20 07:33N 50°49' W 001°05'0 0.0
2015-Jul-20 06:33N 50°49' W 001°05'0 0.0
2015-Jul-20 05:33N 50°49' W 001°05'0 0.0
2015-Jul-20 04:33N 50°49' W 001°05'0 0.0
2015-Jul-20 03:33N 50°49' W 001°05'0 0.0
2015-Jul-20 02:33N 50°49' W 001°05'0 0.0
2015-Jul-20 01:33N 50°49' W 001°05'0 0.0
2015-Jul-20 00:33N 50°49' W 001°05'0 0.0
2015-Jul-19 23:33N 50°49' W 001°05'0 0.0
2015-Jul-19 22:33N 50°49' W 001°05'0 0.0
2015-Jul-19 21:33N 50°49' W 001°05'1 1.4
2015-Jul-19 20:34N 50°47' W 001°07'9 9.0
2015-Jul-19 19:34N 50°40' W 000°58'1211.9
2015-Jul-19 18:34N 50°31' W 001°09'1817.8
2015-Jul-19 17:33N 50°26' W 001°36'1717.5
2015-Jul-19 16:34N 50°22' W 002°03'1716.9
2015-Jul-19 15:33N 50°18' W 002°28'1717.5
2015-Jul-19 14:34N 50°13' W 002°54'1817.6
2015-Jul-19 13:34N 50°08' W 003°21'60419.1
2015-Jul-18 06:00N 48°48' W 018°42'   020 / 71011.4 5.4 0.516.514.216.6

Dump ship's entire track history